Terminal Aerodrome Forecast
Issued by NWS

Home | Current Version | Previous Version | Text Only | Print | Product List | Glossary On
Versions: 1 2 3 4 5 6 7 8 9 10 11 12 13 14 15 16 17 18 19 20 21 22 23 24 25 26 27 28 29 30 31 32 33 34 35 36 37 38 39 40 41 42 43 44 45 46 47 48 49 50
000
FTUS45 KGJT 222102 AAB
TAFRIL
TAF AMD
KRIL 222102Z 2221/2318 27010KT P6SM VCSH SCT025 BKN035
      WS010/32035KT
      TEMPO 2221/2222 28015G30KT 3SM -SN BR BKN015 OVC025
     FM222200 30012G25KT P6SM VCSH SCT010 OVC040 WS020/32035KT
      TEMPO 2222/2302 5SM -SNRA SCT010 BKN020
     FM230200 30009KT 5SM -SN BR BKN015 OVC030
     FM231000 30008KT P6SM VCFG SCT020 BKN060
     FM231400 29005KT P6SM SCT060=

USA.gov is the U.S. government's official web portal to all federal, state and local government web resources and services.